Wetterdaten: Woche 25.06.18 - 01.07.18 (KW26)
Datum Zeit Temp. A. Feuchte A. Luftdruck Regen Wind Richtung Taupunkt Windchill Windben
25.06.2018 00:00 16,5 C 65 % 1017,6 hPa 0,0 l/m 0,5 km/h N 9,8 C 16,5 C 3,2 km/h
25.06.2018 01:00 15,7 C 69 % 1017,7 hPa 0,0 l/m 3,0 km/h N 9,9 C 15,7 C 10,1 km/h
25.06.2018 02:00 14,2 C 76 % 1017,8 hPa 0,0 l/m 4,4 km/h N 10,1 C 14,2 C 12,5 km/h
25.06.2018 03:00 12,8 C 80 % 1017,7 hPa 0,0 l/m 2,4 km/h N 9,4 C 12,8 C 10,1 km/h
25.06.2018 04:00 12,2 C 82 % 1017,8 hPa 0,0 l/m 0,1 km/h N 9,1 C 12,2 C 2,8 km/h
25.06.2018 05:00 11,8 C 82 % 1017,8 hPa 0,0 l/m 1,0 km/h N 8,8 C 11,8 C 5,2 km/h
25.06.2018 06:00 11,6 C 82 % 1018,3 hPa 0,0 l/m 1,1 km/h N 8,7 C 11,6 C 5,2 km/h
25.06.2018 07:00 12,3 C 82 % 1018,9 hPa 0,0 l/m 4,4 km/h N 9,2 C 12,3 C 11,3 km/h
25.06.2018 08:00 13,0 C 81 % 1019,3 hPa 0,0 l/m 4,8 km/h N 9,7 C 13,0 C 15,7 km/h
25.06.2018 09:00 13,7 C 80 % 1019,4 hPa 0,0 l/m 4,6 km/h N 10,2 C 13,7 C 13,7 km/h
25.06.2018 10:00 14,8 C 76 % 1019,3 hPa 0,0 l/m 5,6 km/h N 10,6 C 14,8 C 16,9 km/h
25.06.2018 11:00 16,1 C 72 % 1019,6 hPa 0,0 l/m 6,6 km/h N 11,0 C 16,0 C 18,9 km/h
25.06.2018 12:00 17,0 C 67 % 1019,6 hPa 0,0 l/m 6,3 km/h N 10,9 C 16,8 C 18,9 km/h
25.06.2018 13:00 16,7 C 68 % 1019,8 hPa 0,0 l/m 5,9 km/h N 10,8 C 16,7 C 19,7 km/h
25.06.2018 14:00 17,9 C 64 % 1019,5 hPa 0,0 l/m 6,0 km/h N 10,8 C 17,7 C 18,1 km/h
25.06.2018 15:00 18,4 C 59 % 1019,5 hPa 0,0 l/m 5,8 km/h N 10,3 C 18,3 C 17,7 km/h
25.06.2018 16:00 18,8 C 60 % 1019,4 hPa 0,0 l/m 5,1 km/h N 10,9 C 18,8 C 17,3 km/h
25.06.2018 17:00 19,4 C 59 % 1019,3 hPa 0,0 l/m 5,8 km/h N 11,1 C 19,3 C 19,3 km/h
25.06.2018 18:00 19,8 C 57 % 1019,0 hPa 0,0 l/m 5,6 km/h N 11,1 C 19,6 C 18,9 km/h
25.06.2018 19:00 18,8 C 61 % 1019,1 hPa 0,0 l/m 5,8 km/h N 11,0 C 18,8 C 15,7 km/h
25.06.2018 20:00 18,1 C 63 % 1019,3 hPa 0,0 l/m 5,1 km/h N 10,9 C 18,1 C 16,1 km/h
25.06.2018 21:00 17,7 C 63 % 1019,7 hPa 0,0 l/m 6,6 km/h N 10,5 C 17,5 C 18,9 km/h
25.06.2018 22:00 17,4 C 63 % 1020,0 hPa 0,0 l/m 6,2 km/h N 10,3 C 17,4 C 19,7 km/h
25.06.2018 23:00 16,9 C 66 % 1020,1 hPa 0,0 l/m 6,1 km/h N 10,6 C 16,9 C 16,5 km/h
26.06.2018 00:00 16,5 C 68 % 1020,3 hPa 0,0 l/m 2,9 km/h N 10,6 C 16,5 C 11,3 km/h
26.06.2018 01:00 16,2 C 71 % 1020,0 hPa 0,0 l/m 5,7 km/h N 10,9 C 16,1 C 19,3 km/h
26.06.2018 02:00 16,4 C 73 % 1019,7 hPa 0,0 l/m 4,8 km/h N 11,4 C 16,4 C 14,9 km/h
26.06.2018 03:00 16,3 C 73 % 1019,5 hPa 0,0 l/m 3,6 km/h N 11,4 C 16,3 C 11,7 km/h
26.06.2018 04:00 16,1 C 72 % 1019,3 hPa 0,0 l/m 0,9 km/h N 11,1 C 16,1 C 7,3 km/h
26.06.2018 05:00 15,4 C 74 % 1019,3 hPa 0,0 l/m 1,3 km/h N 10,8 C 15,4 C 6,8 km/h
26.06.2018 06:00 15,9 C 73 % 1019,3 hPa 0,0 l/m 3,9 km/h N 11,0 C 15,9 C 10,5 km/h
26.06.2018 07:00 17,2 C 69 % 1019,4 hPa 0,0 l/m 6,0 km/h N 11,5 C 16,9 C 18,5 km/h
26.06.2018 08:00 18,3 C 66 % 1019,6 hPa 0,0 l/m 6,4 km/h N 11,8 C 18,2 C 19,7 km/h
26.06.2018 09:00 19,5 C 63 % 1019,5 hPa 0,0 l/m 6,1 km/h N 12,2 C 19,4 C 17,7 km/h
26.06.2018 10:00 20,7 C 58 % 1019,4 hPa 0,0 l/m 6,4 km/h N 12,2 C 20,6 C 17,7 km/h
26.06.2018 11:00 21,6 C 55 % 1019,2 hPa 0,0 l/m 6,8 km/h N 12,1 C 21,5 C 20,5 km/h
26.06.2018 12:00 21,4 C 53 % 1018,9 hPa 0,0 l/m 6,6 km/h N 11,4 C 21,3 C 18,1 km/h
26.06.2018 13:00 19,7 C 62 % 1018,7 hPa 0,0 l/m 2,9 km/h N 12,2 C 19,7 C 16,5 km/h
26.06.2018 14:00 21,0 C 67 % 1018,0 hPa 0,0 l/m 2,3 km/h N 14,5 C 21,0 C 10,4 km/h
26.06.2018 15:00 22,3 C 52 % 1017,7 hPa 0,0 l/m 7,6 km/h N 11,8 C 21,7 C 21,3 km/h
26.06.2018 16:00 20,0 C 60 % 1017,9 hPa 0,0 l/m 2,3 km/h N 12,1 C 20,0 C 9,3 km/h
26.06.2018 17:00 17,8 C 69 % 1018,7 hPa 0,0 l/m 6,3 km/h N 11,9 C 17,1 C 19,7 km/h
26.06.2018 18:00 15,5 C 80 % 1019,2 hPa 0,0 l/m 3,7 km/h N 12,0 C 15,5 C 14,9 km/h
26.06.2018 19:00 15,9 C 79 % 1018,9 hPa 0,0 l/m 0,5 km/h N 12,3 C 15,9 C 5,6 km/h
26.06.2018 20:00 15,4 C 81 % 1018,7 hPa 0,0 l/m 0,9 km/h N 12,1 C 15,4 C 5,2 km/h
26.06.2018 21:00 14,6 C 82 % 1019,0 hPa 0,0 l/m 0,7 km/h N 11,5 C 14,6 C 3,6 km/h
26.06.2018 22:00 14,2 C 82 % 1018,7 hPa 0,0 l/m 2,0 km/h N 11,1 C 14,2 C 8,1 km/h
26.06.2018 23:00 14,3 C 81 % 1018,5 hPa 0,0 l/m 2,3 km/h N 11,1 C 14,3 C 6,4 km/h
27.06.2018 00:00 14,2 C 81 % 1018,7 hPa 0,0 l/m 2,8 km/h N 11,0 C 14,2 C 8,9 km/h
27.06.2018 01:00 14,5 C 81 % 1018,5 hPa 0,0 l/m 4,1 km/h N 11,1 C 14,5 C 12,9 km/h
27.06.2018 02:00 14,4 C 81 % 1018,2 hPa 0,0 l/m 4,7 km/h N 11,3 C 14,4 C 16,1 km/h
27.06.2018 03:00 14,3 C 81 % 1018,1 hPa 0,0 l/m 3,8 km/h N 11,1 C 14,3 C 11,3 km/h
27.06.2018 04:00 14,0 C 82 % 1018,6 hPa 0,0 l/m 4,4 km/h N 11,0 C 14,0 C 10,1 km/h
27.06.2018 05:00 13,9 C 82 % 1018,8 hPa 1,3 l/m 4,8 km/h N 10,8 C 13,9 C 14,5 km/h
27.06.2018 06:00 13,9 C 81 % 1018,7 hPa 0,0 l/m 5,4 km/h N 10,7 C 13,9 C 16,1 km/h
27.06.2018 07:00 14,2 C 80 % 1018,8 hPa 0,0 l/m 6,8 km/h N 10,8 C 13,8 C 17,3 km/h
27.06.2018 08:00 14,8 C 79 % 1019,0 hPa 0,0 l/m 7,3 km/h N 11,1 C 14,2 C 19,7 km/h
27.06.2018 09:00 15,8 C 77 % 1019,1 hPa 0,0 l/m 7,8 km/h N 11,6 C 15,0 C 22,9 km/h
27.06.2018 10:00 16,9 C 72 % 1018,9 hPa 0,0 l/m 7,9 km/h N 11,8 C 16,2 C 21,3 km/h
27.06.2018 11:00 18,1 C 68 % 1018,6 hPa 0,0 l/m 8,7 km/h N 12,1 C 17,1 C 22,5 km/h
27.06.2018 12:00 19,5 C 64 % 1018,2 hPa 0,0 l/m 10,0 km/h N 12,5 C 18,1 C 29,4 km/h
27.06.2018 13:00 20,8 C 61 % 1017,7 hPa 0,0 l/m 9,0 km/h N 13,1 C 19,8 C 24,5 km/h
27.06.2018 14:00 21,2 C 59 % 1017,3 hPa 0,0 l/m 8,9 km/h N 12,7 C 20,3 C 24,1 km/h
27.06.2018 15:00 21,7 C 56 % 1016,8 hPa 0,0 l/m 8,7 km/h N 12,6 C 20,9 C 23,7 km/h
27.06.2018 16:00 22,4 C 54 % 1016,1 hPa 0,0 l/m 8,0 km/h N 12,5 C 21,9 C 22,1 km/h
27.06.2018 17:00 19,6 C 68 % 1016,8 hPa 0,8 l/m 6,7 km/h N 13,3 C 19,3 C 20,9 km/h
27.06.2018 18:00 16,7 C 81 % 1017,1 hPa 0,0 l/m 3,7 km/h N 13,4 C 16,7 C 15,3 km/h
27.06.2018 19:00 17,0 C 80 % 1017,1 hPa 0,0 l/m 1,9 km/h N 13,5 C 17,0 C 7,6 km/h
27.06.2018 20:00 16,3 C 80 % 1017,6 hPa 1,0 l/m 2,8 km/h N 12,8 C 16,3 C 11,3 km/h
27.06.2018 21:00 15,4 C 82 % 1017,8 hPa 0,3 l/m 0,4 km/h N 12,3 C 15,4 C 4,8 km/h
27.06.2018 22:00 15,5 C 82 % 1017,8 hPa 0,8 l/m 1,1 km/h N 12,4 C 15,5 C 7,6 km/h
27.06.2018 23:00 15,1 C 82 % 1017,5 hPa 1,8 l/m 3,4 km/h N 12,1 C 15,1 C 13,7 km/h
28.06.2018 00:00 14,8 C 82 % 1016,6 hPa 1,6 l/m 4,8 km/h N 11,7 C 14,8 C 16,1 km/h
28.06.2018 01:00 14,4 C 82 % 1015,5 hPa 4,7 l/m 5,9 km/h N 11,4 C 14,0 C 18,1 km/h
28.06.2018 02:00 14,4 C 83 % 1014,5 hPa 0,8 l/m 5,5 km/h N 11,5 C 14,4 C 17,7 km/h
28.06.2018 03:00 14,5 C 83 % 1013,4 hPa 0,8 l/m 7,5 km/h N 11,6 C 13,9 C 20,1 km/h
28.06.2018 04:00 14,8 C 83 % 1012,6 hPa 1,0 l/m 7,2 km/h N 11,9 C 14,4 C 19,7 km/h
28.06.2018 05:00 15,1 C 83 % 1012,1 hPa 3,6 l/m 6,6 km/h N 12,2 C 14,7 C 23,3 km/h
28.06.2018 06:00 15,2 C 83 % 1011,5 hPa 3,6 l/m 5,8 km/h N 12,4 C 15,1 C 18,5 km/h
28.06.2018 07:00 15,3 C 83 % 1010,9 hPa 6,0 l/m 3,5 km/h N 12,4 C 15,3 C 16,1 km/h
28.06.2018 08:00 15,5 C 83 % 1010,8 hPa 1,6 l/m 4,1 km/h N 12,6 C 15,5 C 15,3 km/h
28.06.2018 09:00 15,7 C 83 % 1010,8 hPa 0,3 l/m 4,0 km/h N 12,8 C 15,7 C 16,1 km/h
28.06.2018 10:00 16,0 C 83 % 1010,6 hPa 0,3 l/m 2,2 km/h N 13,1 C 16,0 C 10,9 km/h
28.06.2018 11:00 16,5 C 83 % 1010,7 hPa 0,0 l/m 2,4 km/h N 13,6 C 16,5 C 12,9 km/h
28.06.2018 12:00 17,2 C 83 % 1010,8 hPa 0,0 l/m 3,2 km/h N 14,3 C 17,2 C 11,3 km/h
28.06.2018 13:00 18,3 C 82 % 1010,6 hPa 0,0 l/m 2,4 km/h N 15,2 C 18,3 C 10,5 km/h
28.06.2018 14:00 19,3 C 82 % 1010,5 hPa 0,0 l/m 4,0 km/h N 16,0 C 19,3 C 15,3 km/h
28.06.2018 15:00 19,8 C 81 % 1010,8 hPa 0,0 l/m 6,4 km/h N 16,3 C 19,8 C 17,7 km/h
28.06.2018 16:00 20,5 C 79 % 1010,4 hPa 0,0 l/m 8,1 km/h N 16,8 C 19,9 C 23,3 km/h
28.06.2018 17:00 20,6 C 78 % 1010,2 hPa 0,0 l/m 8,9 km/h N 16,6 C 19,7 C 25,8 km/h
28.06.2018 18:00 20,1 C 79 % 1010,3 hPa 0,0 l/m 6,4 km/h N 16,2 C 20,1 C 19,3 km/h
28.06.2018 19:00 18,5 C 81 % 1010,4 hPa 5,2 l/m 4,0 km/h N 15,2 C 18,5 C 17,7 km/h
28.06.2018 20:00 17,8 C 82 % 1010,5 hPa 0,8 l/m 6,4 km/h N 14,7 C 17,8 C 18,5 km/h
28.06.2018 21:00 17,8 C 82 % 1010,7 hPa 0,0 l/m 5,6 km/h N 14,7 C 17,9 C 16,9 km/h
28.06.2018 22:00 18,2 C 82 % 1011,2 hPa 0,0 l/m 4,8 km/h N 14,9 C 18,2 C 18,5 km/h
28.06.2018 23:00 18,3 C 82 % 1010,8 hPa 0,0 l/m 8,1 km/h N 15,1 C 17,7 C 20,9 km/h
29.06.2018 00:00 18,5 C 82 % 1010,5 hPa 0,0 l/m 8,9 km/h N 15,2 C 17,4 C 23,3 km/h
29.06.2018 01:00 18,5 C 81 % 1010,1 hPa 0,0 l/m 8,9 km/h N 15,2 C 17,5 C 22,5 km/h
29.06.2018 02:00 18,5 C 81 % 1009,7 hPa 0,0 l/m 7,2 km/h N 15,2 C 18,2 C 23,3 km/h
29.06.2018 03:00 18,6 C 82 % 1009,3 hPa 0,0 l/m 7,2 km/h N 15,4 C 18,3 C 20,9 km/h
29.06.2018 04:00 18,6 C 82 % 1008,9 hPa 0,0 l/m 8,0 km/h N 15,5 C 17,9 C 20,9 km/h
29.06.2018 05:00 18,7 C 82 % 1008,7 hPa 0,0 l/m 6,7 km/h N 15,6 C 18,5 C 18,9 km/h
29.06.2018 06:00 18,9 C 81 % 1008,5 hPa 0,0 l/m 7,0 km/h N 15,6 C 18,5 C 20,1 km/h
29.06.2018 07:00 19,3 C 81 % 1008,6 hPa 0,0 l/m 6,6 km/h N 15,9 C 18,9 C 21,3 km/h
29.06.2018 08:00 19,9 C 81 % 1008,6 hPa 0,0 l/m 10,2 km/h N 16,4 C 18,5 C 27,4 km/h
29.06.2018 09:00 20,9 C 78 % 1008,2 hPa 0,0 l/m 10,6 km/h N 17,0 C 19,5 C 28,6 km/h
29.06.2018 10:00 21,5 C 78 % 1008,5 hPa 0,0 l/m 10,4 km/h N 17,4 C 20,2 C 30,2 km/h
29.06.2018 11:00 21,4 C 77 % 1008,3 hPa 0,0 l/m 10,1 km/h N 17,2 C 20,1 C 26,1 km/h
29.06.2018 12:00 21,6 C 78 % 1008,2 hPa 0,0 l/m 10,5 km/h N 17,7 C 20,3 C 29,8 km/h
29.06.2018 13:00 22,4 C 77 % 1008,0 hPa 0,0 l/m 10,6 km/h N 18,2 C 21,2 C 26,2 km/h
29.06.2018 14:00 24,0 C 72 % 1007,6 hPa 0,0 l/m 10,3 km/h N 18,5 C 23,0 C 27,0 km/h
29.06.2018 15:00 24,0 C 71 % 1007,7 hPa 0,0 l/m 8,8 km/h N 18,3 C 23,3 C 26,2 km/h
29.06.2018 16:00 23,4 C 72 % 1007,6 hPa 0,0 l/m 8,9 km/h N 18,0 C 22,7 C 23,3 km/h
29.06.2018 17:00 23,5 C 70 % 1007,5 hPa 0,0 l/m 8,8 km/h N 17,7 C 22,9 C 22,5 km/h
29.06.2018 18:00 23,5 C 72 % 1007,6 hPa 1,8 l/m 8,1 km/h N 18,0 C 23,0 C 22,5 km/h
29.06.2018 19:00 22,3 C 77 % 1007,8 hPa 0,0 l/m 5,2 km/h N 17,9 C 22,2 C 18,5 km/h
29.06.2018 20:00 22,3 C 75 % 1008,2 hPa 0,0 l/m 5,3 km/h N 17,5 C 22,1 C 23,3 km/h
29.06.2018 21:00 21,6 C 76 % 1008,8 hPa 0,0 l/m 3,8 km/h N 17,2 C 21,6 C 16,5 km/h
29.06.2018 22:00 21,6 C 77 % 1009,2 hPa 0,0 l/m 4,7 km/h N 17,3 C 21,6 C 16,5 km/h
29.06.2018 23:00 21,5 C 76 % 1009,5 hPa 0,0 l/m 7,6 km/h N 17,1 C 20,9 C 19,3 km/h
30.06.2018 00:00 21,2 C 75 % 1009,5 hPa 0,0 l/m 5,4 km/h N 16,6 C 21,2 C 17,3 km/h
30.06.2018 01:00 21,0 C 75 % 1009,1 hPa 0,0 l/m 5,8 km/h N 16,4 C 21,0 C 18,9 km/h
30.06.2018 02:00 20,6 C 76 % 1009,1 hPa 0,0 l/m 6,7 km/h N 16,2 C 20,3 C 19,7 km/h
30.06.2018 03:00 20,2 C 76 % 1008,9 hPa 0,0 l/m 3,5 km/h N 15,9 C 20,2 C 15,7 km/h
30.06.2018 04:00 19,9 C 77 % 1009,0 hPa 0,0 l/m 4,5 km/h N 15,7 C 19,9 C 15,3 km/h
30.06.2018 05:00 19,7 C 77 % 1008,9 hPa 0,0 l/m 5,1 km/h N 15,5 C 19,7 C 16,9 km/h
30.06.2018 06:00 19,8 C 77 % 1009,1 hPa 0,0 l/m 3,4 km/h N 15,6 C 19,8 C 16,1 km/h
30.06.2018 07:00 20,2 C 76 % 1009,4 hPa 0,0 l/m 6,5 km/h N 15,7 C 20,0 C 18,9 km/h
30.06.2018 08:00 20,5 C 70 % 1010,1 hPa 0,0 l/m 5,7 km/h N 14,9 C 20,5 C 18,5 km/h
30.06.2018 09:00 20,0 C 72 % 1010,8 hPa 0,0 l/m 4,9 km/h N 14,8 C 20,0 C 18,1 km/h
30.06.2018 10:00 19,5 C 74 % 1011,2 hPa 0,0 l/m 4,5 km/h N 14,7 C 19,5 C 15,3 km/h
30.06.2018 11:00 19,2 C 74 % 1011,7 hPa 0,0 l/m 4,4 km/h N 14,4 C 19,2 C 16,5 km/h
30.06.2018 12:00 20,4 C 68 % 1011,7 hPa 0,0 l/m 5,8 km/h N 14,4 C 20,3 C 17,3 km/h
30.06.2018 13:00 21,5 C 60 % 1011,5 hPa 0,0 l/m 7,2 km/h N 13,3 C 21,3 C 21,7 km/h
30.06.2018 14:00 22,4 C 50 % 1011,6 hPa 0,0 l/m 8,6 km/h N 11,4 C 21,7 C 25,7 km/h
30.06.2018 15:00 22,4 C 42 % 1011,7 hPa 0,0 l/m 9,9 km/h N 8,7 C 21,3 C 27,8 km/h
30.06.2018 16:00 22,0 C 41 % 1012,2 hPa 0,0 l/m 9,4 km/h N 7,9 C 21,0 C 25,8 km/h
30.06.2018 17:00 21,8 C 42 % 1012,7 hPa 0,0 l/m 8,5 km/h N 8,2 C 21,1 C 24,2 km/h
30.06.2018 18:00 21,4 C 42 % 1013,2 hPa 0,0 l/m 8,3 km/h N 7,9 C 20,8 C 24,5 km/h
30.06.2018 19:00 20,4 C 42 % 1013,6 hPa 0,0 l/m 6,9 km/h N 7,2 C 20,2 C 19,3 km/h
30.06.2018 20:00 19,1 C 44 % 1014,2 hPa 0,0 l/m 5,5 km/h N 6,6 C 19,1 C 20,1 km/h
30.06.2018 21:00 17,5 C 48 % 1015,0 hPa 0,0 l/m 1,7 km/h N 6,3 C 17,5 C 12,4 km/h
30.06.2018 22:00 16,2 C 51 % 1015,6 hPa 0,0 l/m 0,5 km/h N 6,1 C 16,2 C 8,1 km/h
30.06.2018 23:00 14,8 C 56 % 1016,2 hPa 0,0 l/m 0,1 km/h N 6,1 C 14,8 C 2,0 km/h
01.07.2018 00:00 13,2 C 62 % 1016,4 hPa 0,0 l/m 0,1 km/h N 6,0 C 13,2 C 2,0 km/h
01.07.2018 01:00 11,7 C 67 % 1016,5 hPa 0,0 l/m 0,0 km/h N 5,6 C 11,7 C 1,2 km/h
01.07.2018 02:00 10,5 C 71 % 1016,5 hPa 0,0 l/m 0,0 km/h N 5,5 C 10,5 C 0,0 km/h
01.07.2018 03:00 9,9 C 75 % 1016,4 hPa 0,0 l/m 0,0 km/h N 5,6 C 9,9 C 0,8 km/h
01.07.2018 04:00 9,6 C 76 % 1016,3 hPa 0,0 l/m 0,0 km/h N 5,5 C 9,6 C 2,0 km/h
01.07.2018 05:00 9,6 C 75 % 1016,5 hPa 0,0 l/m 0,0 km/h N 5,5 C 9,6 C 1,2 km/h
01.07.2018 06:00 9,7 C 77 % 1016,8 hPa 0,0 l/m 0,0 km/h N 5,9 C 9,7 C 0,0 km/h
01.07.2018 07:00 12,2 C 72 % 1017,0 hPa 0,0 l/m 1,5 km/h N 7,2 C 12,2 C 5,2 km/h
01.07.2018 08:00 15,7 C 59 % 1017,0 hPa 0,0 l/m 1,9 km/h N 7,6 C 15,7 C 10,5 km/h
01.07.2018 09:00 17,4 C 53 % 1016,8 hPa 0,0 l/m 1,2 km/h N 7,7 C 17,4 C 8,0 km/h
01.07.2018 10:00 18,2 C 52 % 1016,7 hPa 0,0 l/m 2,2 km/h N 8,0 C 18,2 C 12,5 km/h
01.07.2018 11:00 17,8 C 46 % 1016,9 hPa 0,0 l/m 4,4 km/h N 6,1 C 17,8 C 15,7 km/h
01.07.2018 12:00 18,6 C 47 % 1016,8 hPa 0,0 l/m 6,0 km/h N 6,9 C 18,3 C 16,1 km/h
01.07.2018 13:00 19,0 C 47 % 1016,7 hPa 0,0 l/m 4,8 km/h N 7,4 C 19,0 C 16,5 km/h
01.07.2018 14:00 19,9 C 46 % 1016,5 hPa 0,0 l/m 5,0 km/h N 7,9 C 19,9 C 17,3 km/h
01.07.2018 15:00 20,2 C 44 % 1016,2 hPa 0,0 l/m 5,0 km/h N 7,6 C 20,1 C 17,7 km/h
01.07.2018 16:00 20,6 C 43 % 1016,0 hPa 0,0 l/m 5,1 km/h N 7,6 C 20,6 C 18,9 km/h
01.07.2018 17:00 20,5 C 43 % 1016,1 hPa 0,0 l/m 3,7 km/h N 7,3 C 20,5 C 16,1 km/h
01.07.2018 18:00 21,1 C 40 % 1016,0 hPa 0,0 l/m 3,3 km/h N 7,0 C 21,1 C 17,7 km/h
01.07.2018 19:00 20,5 C 39 % 1016,2 hPa 0,0 l/m 4,7 km/h N 5,9 C 20,5 C 16,5 km/h
01.07.2018 20:00 18,9 C 41 % 1016,6 hPa 0,0 l/m 1,0 km/h N 5,4 C 18,9 C 6,4 km/h
01.07.2018 21:00 17,1 C 47 % 1017,2 hPa 0,0 l/m 0,1 km/h N 5,5 C 17,1 C 1,2 km/h
01.07.2018 22:00 14,5 C 55 % 1017,5 hPa 0,0 l/m 0,0 km/h N 5,5 C 14,5 C 0,0 km/h
01.07.2018 23:00 12,3 C 64 % 1017,8 hPa 0,0 l/m 0,0 km/h N 5,8 C 12,3 C 0,0 km/h
Min-Datum _ 01.07.18 01.07.18 29.06.18 - 25.06.18 - 01.07.18 01.07.18 25.06.18
_ Min-Zeit 06:15 18:45 14:30 - 00:00 - 20:15 06:15 00:00
Minimum _ 9,4 C 38 % 1007,4 hPa - 0,0 km/h - 5,1 C 9,4 C 0,0 km/h
Max-Datum _ 29.06.18 28.06.18 26.06.18 28.06.18 29.06.18 - 29.06.18 29.06.18 29.06.18
_ Max-Zeit 15:00 01:45 00:45 07:15 12:45 - 14:30 15:00 10:30
Maximum _ 24,8 C 83 % 1020,6 hPa 6,0 l/m 12,6 km/h
N
- 18,7 C 23,9 C 37,0 km/h
N
Durchschnitt _ 17,7 C 70 % 1014,9 hPa #38,0 l/m 5,0 km/h N 11,9 C 17,5 C 15,9 km/h